createdAt,value
2023-01-22T00:01:22.503Z,21.63
2023-01-22T00:03:52.408Z,20.70
2023-01-22T00:06:20.595Z,23.00
2023-01-22T00:08:49.175Z,22.13
2023-01-22T00:11:18.717Z,22.07
2023-01-22T00:13:47.432Z,22.23
2023-01-22T00:16:18.657Z,23.63
2023-01-22T00:18:46.994Z,24.53
2023-01-22T00:21:15.241Z,24.43
2023-01-22T00:23:43.442Z,25.37
2023-01-22T00:26:13.758Z,24.30
2023-01-22T00:28:44.048Z,26.20
2023-01-22T00:31:13.776Z,25.73
2023-01-22T00:33:44.691Z,25.13
2023-01-22T00:36:15.320Z,25.07
2023-01-22T00:38:43.549Z,29.10
2023-01-22T00:41:12.314Z,23.13
2023-01-22T00:43:41.145Z,22.83
2023-01-22T00:46:10.616Z,24.73
2023-01-22T00:48:39.418Z,24.27
2023-01-22T00:51:09.738Z,23.57
2023-01-22T00:53:38.522Z,26.03
2023-01-22T00:56:07.897Z,24.03
2023-01-22T00:58:36.085Z,26.23
2023-01-22T01:01:05.568Z,25.77
2023-01-22T01:03:35.154Z,26.73
2023-01-22T01:06:05.533Z,28.40
2023-01-22T01:08:37.085Z,25.53
2023-01-22T01:11:07.126Z,26.90
2023-01-22T01:13:38.423Z,26.77
2023-01-22T01:16:08.368Z,28.47
2023-01-22T01:18:37.404Z,25.97
2023-01-22T01:21:07.481Z,29.23
2023-01-22T01:23:37.515Z,22.90
2023-01-22T01:26:07.467Z,23.33
2023-01-22T01:28:37.367Z,24.30
2023-01-22T01:31:07.342Z,24.40
2023-01-22T01:33:35.661Z,25.90
2023-01-22T01:36:05.989Z,27.97
2023-01-22T01:38:37.155Z,24.83
2023-01-22T01:41:05.791Z,26.83
2023-01-22T01:43:36.489Z,25.93
2023-01-22T01:46:12.459Z,25.63
2023-01-22T01:48:44.212Z,28.53
2023-01-22T01:51:15.661Z,27.73
2023-01-22T01:53:47.911Z,26.03
2023-01-22T01:56:20.381Z,26.20
2023-01-22T01:58:51.010Z,26.07
2023-01-22T02:01:19.916Z,28.77
2023-01-22T02:03:48.536Z,24.77
2023-01-22T02:06:19.095Z,23.57
2023-01-22T02:08:50.385Z,25.03
2023-01-22T02:11:19.887Z,23.60
2023-01-22T02:13:52.660Z,24.70
2023-01-22T02:16:21.629Z,22.60
2023-01-22T02:18:50.485Z,25.63
2023-01-22T02:21:38.636Z,24.47
2023-01-22T02:24:10.153Z,26.43
2023-01-22T02:26:40.535Z,23.30
2023-01-22T02:29:10.997Z,25.17
2023-01-22T02:31:40.527Z,23.60
2023-01-22T02:34:10.048Z,24.77
2023-01-22T02:36:41.319Z,27.13
2023-01-22T02:39:10.086Z,25.87
2023-01-22T02:41:39.630Z,24.00
2023-01-22T02:44:10.425Z,23.40
2023-01-22T02:46:39.253Z,23.23
2023-01-22T02:49:07.665Z,21.80
2023-01-22T02:51:36.721Z,20.20
2023-01-22T02:54:06.545Z,22.40
2023-01-22T02:56:35.471Z,22.03
2023-01-22T02:59:04.535Z,23.17
2023-01-22T03:01:33.146Z,22.27
2023-01-22T03:04:11.207Z,22.37
2023-01-22T03:06:41.187Z,23.33
2023-01-22T03:09:12.415Z,24.20
2023-01-22T03:11:42.833Z,24.77
2023-01-22T03:14:33.218Z,22.77
2023-01-22T03:17:19.892Z,22.90
2023-01-22T03:20:05.496Z,21.77
2023-01-22T03:22:34.092Z,19.80
2023-01-22T03:25:03.796Z,20.37
2023-01-22T03:27:33.193Z,18.80
2023-01-22T03:30:01.665Z,19.93
2023-01-22T03:32:34.571Z,19.27
2023-01-22T03:35:03.054Z,20.47
2023-01-22T03:37:43.987Z,21.40
2023-01-22T03:40:13.947Z,23.50
2023-01-22T03:42:42.991Z,20.90
2023-01-22T03:45:12.455Z,19.93
2023-01-22T03:47:40.871Z,22.07
2023-01-22T03:50:22.596Z,21.67
2023-01-22T03:52:51.340Z,22.07
2023-01-22T03:55:20.906Z,20.63
2023-01-22T03:57:49.201Z,20.43
2023-01-22T04:00:19.206Z,19.40
2023-01-22T04:02:49.263Z,20.93
2023-01-22T04:05:23.689Z,26.07
2023-01-22T04:07:52.254Z,23.10
2023-01-22T04:10:26.071Z,21.90
2023-01-22T04:12:54.365Z,20.40
2023-01-22T04:15:24.239Z,22.07
2023-01-22T04:17:54.385Z,20.77
2023-01-22T04:20:45.752Z,21.83
2023-01-22T04:23:26.271Z,21.27
2023-01-22T04:25:55.865Z,22.60
2023-01-22T04:28:24.110Z,20.10
2023-01-22T04:30:56.880Z,21.37
2023-01-22T04:33:41.757Z,22.10
2023-01-22T04:36:14.041Z,20.47
2023-01-22T04:38:42.250Z,21.93
2023-01-22T04:41:11.876Z,23.27
2023-01-22T04:43:40.130Z,20.77
2023-01-22T04:46:08.835Z,21.90
2023-01-22T04:48:37.934Z,23.13
2023-01-22T04:51:06.882Z,23.27
2023-01-22T04:53:35.373Z,23.80
2023-01-22T04:56:03.558Z,21.97
2023-01-22T04:58:33.004Z,22.87
2023-01-22T05:01:01.766Z,22.73
2023-01-22T05:03:30.402Z,24.23
2023-01-22T05:05:58.772Z,22.60
2023-01-22T05:08:26.930Z,23.27
2023-01-22T05:10:55.364Z,22.27
2023-01-22T05:13:30.231Z,24.17
2023-01-22T05:15:59.816Z,24.00
2023-01-22T05:18:27.963Z,24.37
2023-01-22T05:20:56.128Z,23.20
2023-01-22T05:23:28.041Z,23.57
2023-01-22T05:25:56.880Z,26.03
2023-01-22T05:28:37.125Z,25.47
2023-01-22T05:31:29.650Z,25.83
2023-01-22T05:34:02.122Z,27.07
2023-01-22T05:36:31.534Z,24.40
2023-01-22T05:39:08.198Z,28.90
2023-01-22T05:41:36.944Z,30.60
2023-01-22T05:44:06.105Z,28.83
2023-01-22T05:46:35.998Z,29.07
2023-01-22T05:49:24.448Z,29.77
2023-01-22T05:51:56.128Z,30.47
2023-01-22T05:54:24.401Z,31.37
2023-01-22T05:56:53.464Z,30.50
2023-01-22T05:59:21.703Z,28.27
2023-01-22T06:01:57.795Z,26.30
2023-01-22T06:04:26.124Z,26.03
2023-01-22T06:06:54.336Z,27.13
2023-01-22T06:09:24.774Z,27.13
2023-01-22T06:11:53.157Z,27.83
2023-01-22T06:14:21.508Z,26.97
2023-01-22T06:16:50.596Z,25.77
2023-01-22T06:19:46.042Z,25.53
2023-01-22T06:22:14.593Z,26.93
2023-01-22T06:24:50.500Z,24.23
2023-01-22T06:27:20.436Z,25.70
2023-01-22T06:29:54.326Z,25.00
2023-01-22T06:32:22.782Z,23.33
2023-01-22T06:34:54.025Z,27.73
2023-01-22T06:37:23.034Z,26.33
2023-01-22T06:39:52.954Z,28.03
2023-01-22T06:42:28.418Z,29.93
2023-01-22T06:44:58.026Z,29.80
2023-01-22T06:47:29.330Z,32.10
2023-01-22T06:49:59.258Z,28.13
2023-01-22T06:52:27.796Z,31.13
2023-01-22T06:54:56.015Z,31.47
2023-01-22T06:57:26.515Z,30.63
2023-01-22T06:59:55.520Z,30.73
2023-01-22T07:02:23.748Z,32.20
2023-01-22T07:04:51.987Z,30.20
2023-01-22T07:07:21.556Z,31.10
2023-01-22T07:09:49.701Z,29.63
2023-01-22T07:12:17.879Z,29.73
2023-01-22T07:14:46.128Z,29.57
2023-01-22T07:17:14.258Z,29.80
2023-01-22T07:19:42.836Z,28.37
2023-01-22T07:22:11.107Z,32.03
2023-01-22T07:24:40.609Z,33.40
2023-01-22T07:27:08.748Z,39.63
2023-01-22T07:29:36.880Z,39.77
2023-01-22T07:32:05.246Z,32.93
2023-01-22T07:34:33.429Z,32.63
2023-01-22T07:37:03.752Z,35.80
2023-01-22T07:39:31.963Z,32.17
2023-01-22T07:42:01.797Z,31.20
2023-01-22T07:44:32.158Z,31.77
2023-01-22T07:47:00.336Z,29.77
2023-01-22T07:49:28.546Z,35.57
2023-01-22T07:51:56.789Z,33.97
2023-01-22T07:54:25.175Z,36.03
2023-01-22T07:56:53.395Z,38.40
2023-01-22T07:59:23.253Z,35.77
2023-01-22T08:01:51.470Z,32.03
2023-01-22T08:04:19.678Z,35.10
2023-01-22T08:06:48.151Z,36.70
2023-01-22T08:09:23.310Z,30.73
2023-01-22T08:11:52.346Z,32.47
2023-01-22T08:14:21.904Z,29.40
2023-01-22T08:16:50.110Z,27.57
2023-01-22T08:19:18.409Z,29.27
2023-01-22T08:21:46.878Z,26.93
2023-01-22T08:24:15.225Z,28.20
2023-01-22T08:26:45.366Z,30.00
2023-01-22T08:29:14.004Z,27.23
2023-01-22T08:31:43.823Z,25.10
2023-01-22T08:34:12.159Z,26.43
2023-01-22T08:36:40.464Z,25.10
2023-01-22T08:39:10.862Z,23.27
2023-01-22T08:41:39.238Z,21.97
2023-01-22T08:44:07.615Z,23.00
2023-01-22T08:46:40.131Z,24.07
2023-01-22T08:49:09.913Z,25.00
2023-01-22T08:51:38.195Z,27.17
2023-01-22T08:54:06.817Z,25.47
2023-01-22T08:56:35.025Z,26.60
2023-01-22T08:59:06.500Z,26.10
2023-01-22T09:01:35.267Z,30.37
2023-01-22T09:04:03.729Z,22.50
2023-01-22T09:06:33.967Z,25.07
2023-01-22T09:09:02.282Z,25.90
2023-01-22T09:11:30.675Z,20.63
2023-01-22T09:13:59.246Z,23.53
2023-01-22T09:16:28.858Z,22.80
2023-01-22T09:18:57.614Z,24.60
2023-01-22T09:21:26.192Z,25.37
2023-01-22T09:23:55.955Z,23.63
2023-01-22T09:26:24.588Z,27.00
2023-01-22T09:28:52.977Z,27.20
2023-01-22T09:31:21.425Z,26.00
2023-01-22T09:33:51.180Z,24.00
2023-01-22T09:36:19.505Z,28.77
2023-01-22T09:38:47.881Z,25.77
2023-01-22T09:41:23.481Z,23.10
2023-01-22T09:43:55.943Z,24.87
2023-01-22T09:46:29.873Z,24.37
2023-01-22T09:49:02.669Z,24.37
2023-01-22T09:51:31.503Z,27.90
2023-01-22T09:54:02.086Z,21.07
2023-01-22T09:56:42.701Z,18.77
2023-01-22T09:59:18.198Z,18.50
2023-01-22T10:01:49.640Z,21.50
2023-01-22T10:04:31.480Z,22.83
2023-01-22T10:07:01.744Z,16.60
2023-01-22T10:09:33.072Z,16.13
2023-01-22T10:12:12.923Z,17.57
2023-01-22T10:14:43.297Z,14.83
2023-01-22T10:17:20.106Z,11.93
2023-01-22T10:19:53.377Z,13.97
2023-01-22T10:22:24.524Z,12.20
2023-01-22T10:24:53.633Z,13.03
2023-01-22T10:27:32.548Z,13.50
2023-01-22T10:30:03.724Z,13.10
2023-01-22T10:32:32.813Z,13.13
2023-01-22T10:35:03.483Z,20.70
2023-01-22T10:37:32.408Z,16.63
2023-01-22T10:40:01.569Z,13.37
2023-01-22T10:42:31.509Z,34.83
2023-01-22T10:45:12.501Z,19.07
2023-01-22T10:47:40.782Z,19.10
2023-01-22T10:50:15.741Z,14.60
2023-01-22T10:52:49.212Z,15.30
2023-01-22T10:55:23.628Z,15.00
2023-01-22T10:57:57.635Z,12.83
2023-01-22T11:00:42.978Z,10.73
2023-01-22T11:03:22.549Z,10.33
2023-01-22T11:05:55.410Z,11.70
2023-01-22T11:08:29.517Z,13.87
2023-01-22T11:11:02.479Z,10.83
2023-01-22T11:13:39.869Z,10.17
2023-01-22T11:16:17.605Z,28.00
2023-01-22T11:18:52.952Z,14.50
2023-01-22T11:21:25.128Z,14.33
2023-01-22T11:24:00.233Z,21.80
2023-01-22T11:26:54.800Z,17.10
2023-01-22T11:30:03.703Z,15.17
2023-01-22T11:32:46.763Z,24.17
2023-01-22T11:35:25.892Z,10.23
2023-01-22T11:38:15.824Z,19.40
2023-01-22T11:41:00.013Z,17.97
2023-01-22T11:43:43.027Z,14.53
2023-01-22T11:46:27.958Z,16.33
2023-01-22T11:49:07.395Z,21.57
2023-01-22T11:51:44.594Z,17.13
2023-01-22T11:54:24.083Z,36.70
2023-01-22T11:57:03.967Z,28.60
2023-01-22T11:59:54.977Z,30.00
2023-01-22T12:03:02.483Z,15.87
2023-01-22T12:05:43.200Z,15.70
2023-01-22T12:08:26.957Z,28.20
2023-01-22T12:11:27.971Z,14.27
2023-01-22T12:14:18.003Z,57.67
2023-01-22T12:16:53.188Z,26.50
2023-01-22T12:19:51.890Z,14.90
2023-01-22T12:22:29.949Z,17.83
2023-01-22T12:25:04.298Z,15.23
2023-01-22T12:27:36.840Z,17.77
2023-01-22T12:30:17.331Z,17.77
2023-01-22T12:32:51.064Z,15.90
2023-01-22T12:35:22.547Z,13.70
2023-01-22T12:37:57.957Z,14.77
2023-01-22T12:40:45.538Z,14.73
2023-01-22T12:43:13.805Z,14.83
2023-01-22T12:45:48.570Z,14.73
2023-01-22T12:48:25.295Z,14.00
2023-01-22T12:51:02.757Z,13.80
2023-01-22T12:53:34.290Z,14.93
2023-01-22T12:56:05.404Z,13.67
2023-01-22T12:58:35.986Z,17.67
2023-01-22T13:01:20.795Z,16.23
2023-01-22T13:03:58.459Z,14.23
2023-01-22T13:06:35.944Z,16.67
2023-01-22T13:09:06.210Z,15.67
2023-01-22T13:11:36.944Z,13.87
2023-01-22T13:14:16.091Z,18.27
2023-01-22T13:16:53.209Z,13.37
2023-01-22T13:19:24.042Z,12.93
2023-01-22T13:21:54.488Z,13.33
2023-01-22T13:24:23.202Z,12.93
2023-01-22T13:26:54.287Z,13.83
2023-01-22T13:29:28.514Z,13.63
2023-01-22T13:31:58.968Z,12.57
2023-01-22T13:34:30.657Z,12.53
2023-01-22T13:37:00.683Z,12.17
2023-01-22T13:39:31.521Z,13.03
2023-01-22T13:42:01.991Z,12.10
2023-01-22T13:44:34.530Z,14.87
2023-01-22T13:47:03.739Z,14.80
2023-01-22T13:49:35.334Z,15.37
2023-01-22T13:52:07.873Z,14.23
2023-01-22T13:54:42.726Z,12.33
2023-01-22T13:57:14.042Z,12.33
2023-01-22T13:59:52.844Z,10.53
2023-01-22T14:02:23.927Z,12.07
2023-01-22T14:04:52.556Z,12.00
2023-01-22T14:07:27.485Z,13.37
2023-01-22T14:09:57.058Z,13.30
2023-01-22T14:12:29.498Z,12.30
2023-01-22T14:14:57.978Z,11.03
2023-01-22T14:17:28.883Z,13.30
2023-01-22T14:19:58.309Z,14.33
2023-01-22T14:22:28.053Z,15.27
2023-01-22T14:24:56.641Z,16.63
2023-01-22T14:27:28.651Z,18.03
2023-01-22T14:29:57.367Z,12.07
2023-01-22T14:32:26.864Z,12.20
2023-01-22T14:34:55.289Z,10.80
2023-01-22T14:37:23.523Z,10.50
2023-01-22T14:39:53.809Z,11.27
2023-01-22T14:42:22.158Z,11.47
2023-01-22T14:44:50.984Z,10.73
2023-01-22T14:47:19.378Z,11.80
2023-01-22T14:49:47.598Z,10.63
2023-01-22T14:52:15.820Z,13.07
2023-01-22T14:54:43.918Z,13.50
2023-01-22T14:57:13.632Z,11.43
2023-01-22T14:59:42.045Z,10.50
2023-01-22T15:02:11.351Z,11.00
2023-01-22T15:04:40.857Z,9.93
2023-01-22T15:07:09.373Z,11.27
2023-01-22T15:09:37.559Z,12.97
2023-01-22T15:12:06.758Z,12.57
2023-01-22T15:14:36.577Z,13.00
2023-01-22T15:17:04.800Z,10.23
2023-01-22T15:19:40.940Z,10.90
2023-01-22T15:22:10.027Z,10.13
2023-01-22T15:24:39.526Z,11.27
2023-01-22T15:27:08.471Z,12.70
2023-01-22T15:29:39.431Z,15.03
2023-01-22T15:32:07.686Z,12.73
2023-01-22T15:34:36.579Z,13.90
2023-01-22T15:37:05.046Z,12.30
2023-01-22T15:39:33.266Z,11.83
2023-01-22T15:42:02.152Z,11.43
2023-01-22T15:44:30.608Z,12.87
2023-01-22T15:47:01.229Z,15.97
2023-01-22T15:49:29.747Z,19.67
2023-01-22T15:51:58.491Z,19.57
2023-01-22T15:54:27.156Z,18.37
2023-01-22T15:56:56.021Z,22.57
2023-01-22T15:59:24.745Z,22.07
2023-01-22T16:01:53.419Z,20.13
2023-01-22T16:04:23.223Z,17.17
2023-01-22T16:06:52.653Z,19.42
2023-01-22T16:09:21.198Z,23.50
2023-01-22T16:11:50.047Z,21.50
2023-01-22T16:14:19.283Z,21.23
2023-01-22T16:16:47.476Z,18.37
2023-01-22T16:19:15.987Z,20.53
2023-01-22T16:21:47.294Z,18.30
2023-01-22T16:24:15.887Z,17.33
2023-01-22T16:26:44.641Z,18.65
2023-01-22T16:29:13.167Z,19.80
2023-01-22T16:31:41.712Z,18.73
2023-01-22T16:34:13.014Z,17.10
2023-01-22T16:36:42.785Z,19.60
2023-01-22T16:39:18.645Z,15.93
2023-01-22T16:41:49.346Z,15.40
2023-01-22T16:44:19.856Z,17.73
2023-01-22T16:46:52.395Z,15.73
2023-01-22T16:49:23.051Z,17.20
2023-01-22T16:51:53.248Z,16.77
2023-01-22T16:54:27.955Z,17.70
2023-01-22T16:56:57.919Z,16.27
2023-01-22T16:59:27.270Z,17.70
2023-01-22T17:01:56.193Z,17.23
2023-01-22T17:04:24.643Z,16.50
2023-01-22T17:06:54.139Z,19.57
2023-01-22T17:09:25.195Z,19.43
2023-01-22T17:11:54.716Z,19.87
2023-01-22T17:14:25.341Z,21.37
2023-01-22T17:16:54.176Z,19.97
2023-01-22T17:19:23.077Z,19.17
2023-01-22T17:21:53.147Z,19.20
2023-01-22T17:24:23.711Z,19.77
2023-01-22T17:26:53.658Z,19.37
2023-01-22T17:29:22.640Z,20.63
2023-01-22T17:31:52.476Z,20.77
2023-01-22T17:34:21.185Z,24.33
2023-01-22T17:36:50.911Z,24.60
2023-01-22T17:39:20.679Z,27.17
2023-01-22T17:41:50.853Z,21.10
2023-01-22T17:44:19.479Z,24.13
2023-01-22T17:46:49.199Z,25.20
2023-01-22T17:49:17.844Z,20.13
2023-01-22T17:51:46.051Z,19.97
2023-01-22T17:54:14.544Z,16.73
2023-01-22T17:56:45.551Z,22.20
2023-01-22T17:59:15.918Z,19.77
2023-01-22T18:01:45.327Z,17.70
2023-01-22T18:04:14.734Z,21.27
2023-01-22T18:06:44.921Z,17.23
2023-01-22T18:09:13.415Z,18.73
2023-01-22T18:11:42.597Z,18.03
2023-01-22T18:14:14.046Z,16.13
2023-01-22T18:16:44.227Z,19.23
2023-01-22T18:19:12.680Z,17.57
2023-01-22T18:21:41.692Z,19.47
2023-01-22T18:24:12.670Z,17.93
2023-01-22T18:26:41.519Z,19.57
2023-01-22T18:29:11.478Z,20.63
2023-01-22T18:31:40.223Z,20.97
2023-01-22T18:34:14.447Z,20.80
2023-01-22T18:36:44.151Z,20.43
2023-01-22T18:39:15.253Z,18.50
2023-01-22T18:41:45.061Z,23.80
2023-01-22T18:44:16.333Z,19.67
2023-01-22T18:46:48.045Z,20.83
2023-01-22T18:49:19.802Z,22.63
2023-01-22T18:51:48.131Z,22.80
2023-01-22T18:54:17.531Z,23.07
2023-01-22T18:56:47.211Z,22.20
2023-01-22T18:59:15.709Z,24.73
2023-01-22T19:01:50.672Z,26.23
2023-01-22T19:04:22.247Z,24.90
2023-01-22T19:06:57.170Z,28.73
2023-01-22T19:09:27.072Z,32.80
2023-01-22T19:11:56.020Z,31.03
2023-01-22T19:14:25.393Z,28.57
2023-01-22T19:16:54.402Z,25.53
2023-01-22T19:19:24.486Z,22.20
2023-01-22T19:21:55.044Z,21.93
2023-01-22T19:24:26.771Z,25.97
2023-01-22T19:26:57.872Z,26.37
2023-01-22T19:29:28.307Z,22.20
2023-01-22T19:31:57.685Z,22.47
2023-01-22T19:34:30.374Z,25.70
2023-01-22T19:37:02.440Z,24.60
2023-01-22T19:39:31.261Z,25.33
2023-01-22T19:42:02.036Z,24.60
2023-01-22T19:44:30.912Z,21.67
2023-01-22T19:47:02.014Z,25.50
2023-01-22T19:49:32.071Z,21.03
2023-01-22T19:52:00.713Z,21.87
2023-01-22T19:54:29.031Z,22.47
2023-01-22T19:56:59.010Z,22.60
2023-01-22T19:59:27.600Z,22.00
2023-01-22T20:01:55.965Z,20.27
2023-01-22T20:04:26.863Z,21.00
2023-01-22T20:07:02.503Z,20.20
2023-01-22T20:09:31.619Z,21.20
2023-01-22T20:12:01.374Z,20.30
2023-01-22T20:14:32.264Z,21.53
2023-01-22T20:17:02.467Z,20.93
2023-01-22T20:19:31.272Z,23.93
2023-01-22T20:22:03.183Z,22.57
2023-01-22T20:24:31.506Z,21.90
2023-01-22T20:27:01.484Z,21.50
2023-01-22T20:29:30.392Z,21.70
2023-01-22T20:31:59.356Z,21.97
2023-01-22T20:34:27.991Z,22.00
2023-01-22T20:36:56.184Z,24.20
2023-01-22T20:39:25.983Z,23.93
2023-01-22T20:41:55.484Z,23.10
2023-01-22T20:44:24.216Z,23.50
2023-01-22T20:46:53.386Z,22.77
2023-01-22T20:49:21.881Z,21.73
2023-01-22T20:51:50.264Z,23.77
2023-01-22T20:54:19.100Z,24.63
2023-01-22T20:56:50.286Z,29.80
2023-01-22T20:59:19.300Z,26.10
2023-01-22T21:01:47.979Z,23.93
2023-01-22T21:04:16.927Z,21.40
2023-01-22T21:06:45.560Z,24.77
2023-01-22T21:09:14.166Z,26.93
2023-01-22T21:11:43.999Z,34.20
2023-01-22T21:14:16.495Z,25.17
2023-01-22T21:16:45.728Z,30.17
2023-01-22T21:19:17.491Z,24.27
2023-01-22T21:21:46.417Z,28.10
2023-01-22T21:24:14.963Z,24.83
2023-01-22T21:26:43.891Z,25.23
2023-01-22T21:29:16.376Z,22.73
2023-01-22T21:31:45.482Z,24.43
2023-01-22T21:34:13.703Z,25.10
2023-01-22T21:36:45.082Z,25.60
2023-01-22T21:39:16.201Z,30.80
2023-01-22T21:41:45.265Z,23.37
2023-01-22T21:44:34.425Z,24.50
2023-01-22T21:47:03.313Z,25.00
2023-01-22T21:49:32.428Z,26.47
2023-01-22T21:52:04.215Z,26.33
2023-01-22T21:54:35.983Z,24.27
2023-01-22T21:57:05.408Z,26.57
2023-01-22T21:59:36.822Z,24.13
2023-01-22T22:02:05.861Z,28.03
2023-01-22T22:04:34.510Z,25.80
2023-01-22T22:07:02.770Z,25.40
2023-01-22T22:09:31.596Z,26.07
2023-01-22T22:12:01.447Z,26.50
2023-01-22T22:14:30.288Z,25.43
2023-01-22T22:17:00.139Z,25.27
2023-01-22T22:19:28.878Z,29.03
2023-01-22T22:21:57.310Z,30.07
2023-01-22T22:24:25.459Z,33.83
2023-01-22T22:26:53.654Z,35.27
2023-01-22T22:29:21.952Z,31.50
2023-01-22T22:31:50.174Z,27.93
2023-01-22T22:34:20.000Z,28.33
2023-01-22T22:36:48.251Z,28.27
2023-01-22T22:39:16.508Z,30.50
2023-01-22T22:41:45.076Z,28.73
2023-01-22T22:44:15.045Z,28.30
2023-01-22T22:46:43.316Z,30.17
2023-01-22T22:49:13.636Z,29.83
2023-01-22T22:51:44.351Z,28.47
2023-01-22T22:54:16.054Z,32.50
2023-01-22T22:56:45.573Z,31.17
2023-01-22T22:59:15.170Z,31.80
2023-01-22T23:01:43.613Z,32.93
2023-01-22T23:04:12.886Z,36.27
2023-01-22T23:06:45.589Z,34.87
2023-01-22T23:09:15.970Z,34.57
2023-01-22T23:11:44.895Z,34.50
2023-01-22T23:14:13.890Z,33.87
2023-01-22T23:16:43.879Z,35.37
2023-01-22T23:19:16.145Z,36.07
2023-01-22T23:21:46.509Z,35.27
2023-01-22T23:24:15.508Z,35.80
2023-01-22T23:26:45.288Z,37.80
2023-01-22T23:29:16.015Z,39.97
2023-01-22T23:31:44.626Z,39.43
2023-01-22T23:34:14.713Z,41.07
2023-01-22T23:36:46.517Z,39.83
2023-01-22T23:39:16.953Z,41.57
2023-01-22T23:41:46.592Z,42.53
2023-01-22T23:44:15.618Z,40.13
2023-01-22T23:46:45.129Z,40.40
2023-01-22T23:49:14.414Z,41.03
2023-01-22T23:51:44.868Z,41.87
2023-01-22T23:54:17.423Z,41.13
2023-01-22T23:56:46.545Z,41.90
2023-01-22T23:59:15.553Z,36.20
